Terminal Aerodrome Forecast
Issued by NWS

Home | Current Version | Previous Version | Text Only | Print | Product List | Glossary On
Versions: 1 2 3 4 5 6 7 8 9 10 11 12 13
000
FTUS43 KMQT 031137
TAFSAW
TAF
KSAW 031137Z 0312/0412 20009KT P6SM SCT150
     FM031700 19012G19KT P6SM BKN120
     FM040100 18009KT P6SM -SHRA BKN080
     FM041100 20006KT P6SM -SHRA OVC030=

USA.gov is the U.S. government's official web portal to all federal, state and local government web resources and services.